Aeroporto :
LOGIN :

Iscrizione | Disclaimer

   EN    FR    IT 

 










Sommario :    VFR   VFR Marginale   IFR   IFR Intensivo   IFR Molto Intensivo
Visibilità : 
Base nubi : 
>= 8 km
>= 3000ft
5 / 8 km
1000 / 3000 ft
1500m / 5 km
500 / 1000 ft
800 / 1500m
200 / 500 ft
< 800m
< 200 ft
Simboli :   Temporali  Nebbia  Neve Forte  Precipitazioni Forti  Vento > 20 kt
SIGMETs :   Varie  Temporali  Ghiacco  Turbolenza  Onda orograficha  Ceneri Vulcaniche






- Altitudine del aeroporto : 162 ft
- Codice IATA : BOD


LFBD - Bordeaux / Merignac

ULTIMO METAR :
  • 191730Z AUTO 10005KT CAVOK 06/02 Q1016 NOSIG

METARs OBSOLETI :
  • 191700Z AUTO 10004KT CAVOK 08/03 Q1016 NOSIG
  • 191630Z AUTO 11006KT CAVOK 09/03 Q1016 NOSIG
  • 191600Z AUTO 10008KT CAVOK 09/03 Q1016 NOSIG
  • 191530Z AUTO 10007KT 9999 FEW036 10/02 Q1016 NOSIG
  • 191500Z AUTO 12006KT CAVOK 11/02 Q1016 NOSIG

TAF TAF LFBD
Valido dal 19 a 18 ore il 21 a 00 ore UTC


191700Z 1918/2024 12005KT CAVOK TX11/2014Z TN02/2006Z
PROB40 1921/2011 3000 BR
PROB40
TEMPO 2000/2010 0500 FG VV///
TEMPO 2020/2024 3000 BR
ATIS : +33 5 57 92 81 04



MetMap, La meteo Aeronautica in un colpo d'occhio ! - Copyright ORBIFLY Dicembre 2007 - Disclaimer

ORBIFLY MET'MAP TEAM :

Programmazione e sviluppo : Alexandra Zaïnal
Concezione e sviluppo : Baudouin d'Aumeries
Co-Programmazione e sviluppo : Marc-Olivier Méhu
Supporto tecnico e logistico : Manuel Goepfert
Aiuto per la traduzione : Arnaldo La Scala

Contatto : metmap@orbifly.com




FONTI E CREDITI :

   NOAA